Time;durP1;ratioP1;P1;durP2;ratioP2;P2;SDS_P1;SDS_P2;PMS_P1;PMS_P2;Temp;Humidity;BMP_temperature;BMP_pressure;BME280_temperature;BME280_humidity;BME280_pressure;Samples;Min_cycle;Max_cycle;Signal;HPM_P1;HPM_P2
2022/04/30 00:01:56;;;;;;;;;;;;;;;;;;5054482;28;19920;-57
2022/04/30 00:04:22;;;;;;;;;;;;;;;;;;5054575;28;20405;-56
2022/04/30 00:06:48;;;;;;;;;;;;;;;;;;5054505;28;19917;-57
2022/04/30 00:09:13;;;;;;;;;;;18.50;90.70;;;;;;5054455;28;19908;-57
2022/04/30 00:11:39;;;;;;;;;;;18.60;90.70;;;;;;5054393;28;19912;-58
2022/04/30 00:14:04;;;;;;;;;;;;;;;;;;5054642;28;19979;-55
2022/04/30 00:16:30;;;;;;;;;;;;;;;;;;5054346;28;19954;-57
2022/04/30 00:18:57;;;;;;;;;;;;;;;;;;5054288;28;19944;-56
2022/04/30 00:21:23;;;;;;;;;;;;;;;;;;5054294;28;19917;-56
2022/04/30 00:23:49;;;;;;;;;;;18.50;90.70;;;;;;5054225;28;19963;-57
2022/04/30 00:26:15;;;;;;;;;;;;;;;;;;5054237;28;19999;-57
2022/04/30 00:28:41;;;;;;;;;;;;;;;;;;5054042;28;19916;-56
2022/04/30 00:31:07;;;;;;;;;;;18.50;90.70;;;;;;5054385;28;19913;-57
2022/04/30 00:33:33;;;;;;;;;;;;;;;;;;5054316;28;20260;-57
2022/04/30 00:35:59;;;;;;;;;;;18.50;88.60;;;;;;5053626;28;20352;-49
2022/04/30 00:38:25;;;;;;;;;;;18.40;90.80;;;;;;5053982;28;20370;-49
2022/04/30 00:40:51;;;;;;;;;;;;;;;;;;5053995;28;19916;-49
2022/04/30 00:43:16;;;;;;;;;;;;;;;;;;5053807;28;19908;-49
2022/04/30 00:45:42;;;;;;;;;;;;;;;;;;5053714;28;19909;-49
2022/04/30 00:48:08;;;;;;;;;;;;;;;;;;5053691;28;19915;-49
2022/04/30 00:50:34;;;;;;;;;;;;;;;;;;5053672;28;19909;-49
2022/04/30 00:53:00;;;;;;;;;;;18.40;90.90;;;;;;5053646;28;19952;-48
2022/04/30 00:55:27;;;;;;;;;;;18.40;90.90;;;;;;5053671;28;19916;-50
2022/04/30 00:57:54;;;;;;;;;;;18.20;90.70;;;;;;5053475;28;19908;-50
2022/04/30 01:00:20;;;;;;;;;;;;;;;;;;5052195;28;20508;-49
2022/04/30 01:02:46;;;;;;;;;;;;;;;;;;5053160;28;19921;-50
2022/04/30 01:05:11;;;;;;;;;;;18.40;90.90;;;;;;5053455;28;19935;-50
2022/04/30 01:07:39;;;;;;;;;;;18.30;90.90;;;;;;5053421;28;19909;-50
2022/04/30 01:10:05;;;;;;;;;;;;;;;;;;5053357;28;19916;-49
2022/04/30 01:12:30;;;;;;;;;;;;;;;;;;5053373;28;19909;-50
2022/04/30 01:14:56;;;;;;;;;;;;;;;;;;5053211;28;19931;-50
2022/04/30 01:17:22;;;;;;;;;;;;;;;;;;5053223;28;19956;-49
2022/04/30 01:19:48;;;;;;;;;;;;;;;;;;5053059;28;20269;-49
2022/04/30 01:22:14;;;;;;;;;;;;;;;;;;5053159;28;19916;-50
2022/04/30 01:24:40;;;;;;;;;;;18.30;91.00;;;;;;5053027;28;19908;-50
2022/04/30 01:27:06;;;;;;;;;;;;;;;;;;5053019;28;19913;-50
2022/04/30 01:29:33;;;;;;;;;;;;;;;;;;5053082;28;19913;-50
2022/04/30 01:37:28;;;;;;;;;;;18.30;91.10;;;;;;5053202;28;19916;-57
2022/04/30 01:40:00;;;;;;;;;;;18.30;91.00;;;;;;5052747;28;19917;-57
2022/04/30 01:42:29;;;;;;;;;;;18.20;91.00;;;;;;5052890;28;19982;-57
2022/04/30 01:44:54;;;;;;;;;;;;;;;;;;5053030;28;20259;-57
2022/04/30 01:47:20;;;;;;;;;;;;;;;;;;5052123;28;19963;-57
2022/04/30 01:49:46;;;;;;;;;;;;;;;;;;5051600;28;19908;-57
2022/04/30 01:52:13;;;;;;;;;;;;;;;;;;5052674;28;19912;-56
2022/04/30 01:54:39;;;;;;;;;;;18.30;91.20;;;;;;5052817;28;19916;-57
2022/04/30 01:57:05;;;;;;;;;;;18.20;91.30;;;;;;5052658;28;19916;-57
2022/04/30 01:59:30;;;;;;;;;;;18.20;89.40;;;;;;5052817;28;19917;-57
2022/04/30 02:01:56;;;;;;;;;;;;;;;;;;5052306;28;19917;-58
2022/04/30 02:04:22;;;;;;;;;;;18.20;91.20;;;;;;5052543;28;20391;-58
2022/04/30 02:06:48;;;;;;;;;;;18.20;91.10;;;;;;5052620;28;19916;-58
2022/04/30 02:09:14;;;;;;;;;;;18.20;91.20;;;;;;5052638;28;19908;-58
2022/04/30 02:11:41;;;;;;;;;;;18.20;91.20;;;;;;5052528;28;20450;-57
2022/04/30 02:14:07;;;;;;;;;;;18.20;91.30;;;;;;5052741;28;20386;-57
2022/04/30 02:16:34;;;;;;;;;;;18.10;91.30;;;;;;5052490;28;19954;-57
2022/04/30 02:19:00;;;;;;;;;;;;;;;;;;5052370;28;19947;-57
2022/04/30 02:21:29;;;;;;;;;;;18.10;91.30;;;;;;5052418;28;20017;-57
2022/04/30 02:23:57;;;;;;;;;;;18.10;91.40;;;;;;5052724;28;19909;-57
2022/04/30 02:26:25;;;;;;;;;;;;;;;;;;5052401;28;19916;-57
2022/04/30 02:28:51;;;;;;;;;;;18.10;91.40;;;;;;5052424;28;19909;-57
2022/04/30 02:31:17;;;;;;;;;;;;;;;;;;5052307;28;20394;-57
2022/04/30 02:33:42;;;;;;;;;;;;;;;;;;5052297;28;20005;-56
2022/04/30 02:36:08;;;;;;;;;;;;;;;;;;5050938;28;19909;-57
2022/04/30 02:38:36;;;;;;;;;;;;;;;;;;5052271;28;20008;-57
2022/04/30 02:41:01;;;;;;;;;;;18.20;91.00;;;;;;5052196;28;19927;-57
2022/04/30 02:43:28;;;;;;;;;;;18.20;90.80;;;;;;5052282;28;19909;-57
2022/04/30 02:45:54;;;;;;;;;;;;;;;;;;5052206;28;19909;-50
2022/04/30 02:48:20;;;;;;;;;;;;;;;;;;5050845;28;20007;-50
2022/04/30 02:50:48;;;;;;;;;;;;;;;;;;5052317;28;19909;-51
2022/04/30 02:53:13;;;;;;;;;;;18.30;90.70;;;;;;5052024;28;20381;-50
2022/04/30 02:55:39;;;;;;;;;;;18.20;90.70;;;;;;5052081;28;19987;-51
2022/04/30 03:00:51;;;;;;;;;;;;;;;;;;5055833;28;19924;-52
2022/04/30 03:03:17;;;;;;;;;;;;;;;;;;5055490;28;19925;-50
2022/04/30 03:05:44;;;;;;;;;;;18.10;90.40;;;;;;5055477;28;20000;-50
2022/04/30 03:08:12;;;;;;;;;;;;;;;;;;5055554;28;20283;-49
2022/04/30 03:10:38;;;;;;;;;;;;;;;;;;5055420;28;19913;-51
2022/04/30 03:13:04;;;;;;;;;;;18.20;90.20;;;;;;5055345;28;19954;-49
2022/04/30 03:15:30;;;;;;;;;;;18.10;90.20;;;;;;5055579;28;19909;-50
2022/04/30 03:23:25;;;;;;;;;;;18.00;90.20;;;;;;5055263;28;19915;-50
2022/04/30 03:25:50;;;;;;;;;;;18.00;88.00;;;;;;5055046;28;19909;-50
2022/04/30 03:28:16;;;;;;;;;;;;;;;;;;5055029;28;19908;-50
2022/04/30 03:30:42;;;;;;;;;;;;;;;;;;5055069;28;20005;-49
2022/04/30 03:33:08;;;;;;;;;;;17.90;90.40;;;;;;5054966;28;19916;-49
2022/04/30 03:35:34;;;;;;;;;;;;;;;;;;5054923;28;19909;-49
2022/04/30 03:38:00;;;;;;;;;;;;;;;;;;5054933;28;20004;-49
2022/04/30 03:40:26;;;;;;;;;;;;;;;;;;5054822;28;19917;-50
2022/04/30 03:42:51;;;;;;;;;;;17.80;90.50;;;;;;5054827;28;19913;-50
2022/04/30 03:45:17;;;;;;;;;;;17.90;90.40;;;;;;5054766;28;19960;-49
2022/04/30 03:47:42;;;;;;;;;;;17.90;87.40;;;;;;5054967;28;20004;-52
2022/04/30 03:50:08;;;;;;;;;;;;;;;;;;5054672;28;19909;-49
2022/04/30 03:52:34;;;;;;;;;;;;;;;;;;5054607;28;19924;-50
2022/04/30 03:55:00;;;;;;;;;;;;;;;;;;5054556;28;19931;-50
2022/04/30 03:57:28;;;;;;;;;;;;;;;;;;5054529;28;19909;-49
2022/04/30 03:59:54;;;;;;;;;;;;;;;;;;5054429;28;20481;-50
2022/04/30 04:02:20;;;;;;;;;;;;;;;;;;5054190;28;19975;-50
2022/04/30 04:04:46;;;;;;;;;;;;;;;;;;5054248;28;19912;-50
2022/04/30 04:07:12;;;;;;;;;;;17.80;90.30;;;;;;5054390;28;19912;-48
2022/04/30 04:09:37;;;;;;;;;;;17.80;90.40;;;;;;5053576;28;19962;-50
2022/04/30 04:12:03;;;;;;;;;;;17.70;89.60;;;;;;5054253;28;20295;-50
2022/04/30 04:19:58;;;;;;;;;;;;;;;;;;5054137;28;19924;-51
2022/04/30 04:22:24;;;;;;;;;;;;;;;;;;5054056;28;19908;-50
2022/04/30 04:27:35;;;;;;;;;;;;;;;;;;5054019;28;19916;-50
2022/04/30 04:30:00;;;;;;;;;;;;;;;;;;5054114;28;19909;-49
2022/04/30 04:32:26;;;;;;;;;;;;;;;;;;5053994;28;19936;-51
2022/04/30 04:34:52;;;;;;;;;;;;;;;;;;5053841;28;19970;-50
2022/04/30 04:37:18;;;;;;;;;;;;;;;;;;5053930;28;20302;-50
2022/04/30 04:39:44;;;;;;;;;;;;;;;;;;5053537;28;20411;-49
2022/04/30 04:42:10;;;;;;;;;;;;;;;;;;5053753;28;19937;-49
2022/04/30 04:44:36;;;;;;;;;;;;;;;;;;5053645;28;20392;-49
2022/04/30 04:47:02;;;;;;;;;;;;;;;;;;5053533;28;19959;-50
2022/04/30 04:49:28;;;;;;;;;;;;;;;;;;5053520;28;19908;-49
2022/04/30 04:51:53;;;;;;;;;;;17.70;90.40;;;;;;5053392;28;20008;-50
2022/04/30 04:54:19;;;;;;;;;;;17.60;90.50;;;;;;5053604;28;19909;-50
2022/04/30 04:56:44;;;;;;;;;;;17.70;88.00;;;;;;5053588;28;19916;-49
2022/04/30 04:59:10;;;;;;;;;;;;;;;;;;5053503;28;19913;-49
2022/04/30 05:01:37;;;;;;;;;;;;;;;;;;5053261;28;20095;-49
2022/04/30 05:04:02;;;;;;;;;;;;;;;;;;5053467;28;20383;-50
2022/04/30 05:06:28;;;;;;;;;;;;;;;;;;5053446;28;19962;-49
2022/04/30 05:08:54;;;;;;;;;;;;;;;;;;5053383;28;20287;-50
2022/04/30 05:11:20;;;;;;;;;;;;;;;;;;5053435;28;19908;-50
2022/04/30 05:13:46;;;;;;;;;;;;;;;;;;5053309;28;19909;-50
2022/04/30 05:16:12;;;;;;;;;;;;;;;;;;5053320;28;19913;-50
2022/04/30 05:18:38;;;;;;;;;;;;;;;;;;5053278;28;19999;-50
2022/04/30 05:21:03;;;;;;;;;;;17.50;90.40;;;;;;5052487;28;20015;-50
2022/04/30 05:23:30;;;;;;;;;;;17.50;90.50;;;;;;5052929;28;19915;-50
2022/04/30 05:25:56;;;;;;;;;;;;;;;;;;5053054;28;19909;-50
2022/04/30 05:28:22;;;;;;;;;;;;;;;;;;5053129;28;20279;-50
2022/04/30 05:30:48;;;;;;;;;;;;;;;;;;5053224;28;19909;-50
2022/04/30 05:33:13;;;;;;;;;;;17.50;90.40;;;;;;5052965;28;19956;-48
2022/04/30 05:35:39;;;;;;;;;;;;;;;;;;5052917;28;19978;-49
2022/04/30 05:38:05;;;;;;;;;;;17.60;90.40;;;;;;5052866;28;19963;-49
2022/04/30 05:40:31;;;;;;;;;;;;;;;;;;5052768;28;19917;-49
2022/04/30 05:42:57;;;;;;;;;;;;;;;;;;5052747;28;19916;-49
2022/04/30 05:45:22;;;;;;;;;;;;;;;;;;5052832;28;19909;-49
2022/04/30 05:47:48;;;;;;;;;;;;;;;;;;5052841;28;20260;-48
2022/04/30 05:50:14;;;;;;;;;;;;;;;;;;5052773;28;19967;-50
2022/04/30 05:52:40;;;;;;;;;;;;;;;;;;5052676;28;19909;-50
2022/04/30 05:55:06;;;;;;;;;;;;;;;;;;5052664;28;20046;-49
2022/04/30 05:57:32;;;;;;;;;;;17.50;90.30;;;;;;5052968;28;20065;-50
2022/04/30 05:59:57;;;;;;;;;;;17.50;90.40;;;;;;5052550;28;20375;-50
2022/04/30 06:02:23;;;;;;;;;;;17.50;90.10;;;;;;5052535;28;19921;-51
2022/04/30 06:04:49;;;;;;;;;;;17.50;88.30;;;;;;5052584;28;19967;-50
2022/04/30 06:07:15;;;;;;;;;;;17.50;89.30;;;;;;5052716;28;19909;-51
2022/04/30 06:09:40;;;;;;;;;;;17.50;89.80;;;;;;5052605;28;20287;-50
2022/04/30 06:12:06;;;;;;;;;;;;;;;;;;5052500;28;19936;-51
2022/04/30 06:14:32;;;;;;;;;;;;;;;;;;5052772;28;19913;-51
2022/04/30 06:16:58;;;;;;;;;;;;;;;;;;5052425;28;19909;-50
2022/04/30 06:19:24;;;;;;;;;;;;;;;;;;5052655;28;19978;-48
2022/04/30 06:21:51;;;;;;;;;;;;;;;;;;5052423;28;19927;-49
2022/04/30 06:24:16;;;;;;;;;;;;;;;;;;5052453;28;20330;-56
2022/04/30 06:26:43;;;;;;;;;;;;;;;;;;5052369;28;19913;-57
2022/04/30 06:29:10;;;;;;;;;;;17.50;87.70;;;;;;5052628;28;19909;-56
2022/04/30 06:31:36;;;;;;;;;;;17.50;90.40;;;;;;5052663;28;20006;-56
2022/04/30 06:34:01;;;;;;;;;;;17.40;90.30;;;;;;5055061;28;19917;-54
2022/04/30 06:36:28;;;;;;;;;;;17.40;90.50;;;;;;5056286;28;20035;-53
2022/04/30 06:38:53;;;;;;;;;;;17.40;90.40;;;;;;5056192;28;19909;-53
2022/04/30 06:41:21;;;;;;;;;;;17.50;90.20;;;;;;5056114;28;20351;-51
2022/04/30 06:43:46;;;;;;;;;;;;;;;;;;5056178;28;19927;-51
2022/04/30 06:46:12;;;;;;;;;;;;;;;;;;5056067;28;20271;-51
2022/04/30 06:48:38;;;;;;;;;;;;;;;;;;5056534;28;19958;-51
2022/04/30 06:51:04;;;;;;;;;;;;;;;;;;5055919;28;20351;-52
2022/04/30 06:59:01;;;;;;;;;;;17.50;90.20;;;;;;5055858;28;19962;-51
2022/04/30 07:01:52;;;;;;;;;;;;;;;;;;5055602;28;19909;-51
2022/04/30 07:04:18;;;;;;;;;;;;;;;;;;5055829;28;19913;-55
2022/04/30 07:06:44;;;;;;;;;;;;;;;;;;5056026;28;19919;-55
2022/04/30 07:09:10;;;;;;;;;;;;;;;;;;5055598;28;19909;-53
2022/04/30 07:11:36;;;;;;;;;;;17.50;90.10;;;;;;5055669;28;19909;-55
2022/04/30 07:14:01;;;;;;;;;;;17.50;89.70;;;;;;5055670;28;19958;-55
2022/04/30 07:16:27;;;;;;;;;;;17.50;89.50;;;;;;5055534;28;19935;-57
2022/04/30 07:18:52;;;;;;;;;;;;;;;;;;5055563;28;19915;-57
2022/04/30 07:21:18;;;;;;;;;;;;;;;;;;5055390;28;19940;-58
2022/04/30 07:23:44;;;;;;;;;;;;;;;;;;5054142;28;19952;-58
2022/04/30 07:26:10;;;;;;;;;;;;;;;;;;5055326;28;20399;-58
2022/04/30 07:28:36;;;;;;;;;;;;;;;;;;5055573;28;19948;-57
2022/04/30 07:31:05;;;;;;;;;;;17.70;90.00;;;;;;5055289;28;20405;-56
2022/04/30 07:33:31;;;;;;;;;;;;;;;;;;5055196;28;19983;-56
2022/04/30 07:35:57;;;;;;;;;;;;;;;;;;5055224;28;19917;-56
2022/04/30 07:38:23;;;;;;;;;;;;;;;;;;5055284;28;20390;-57
2022/04/30 07:40:49;;;;;;;;;;;;;;;;;;5055039;28;19917;-54
2022/04/30 07:43:14;;;;;;;;;;;;;;;;;;5054998;28;19909;-55
2022/04/30 07:45:40;;;;;;;;;;;;;;;;;;5053950;28;19909;-56
2022/04/30 07:48:06;;;;;;;;;;;;;;;;;;5054907;28;20395;-56
2022/04/30 07:50:35;;;;;;;;;;;17.70;90.00;;;;;;5053695;28;19920;-54
2022/04/30 07:53:04;;;;;;;;;;;17.70;87.80;;;;;;5054689;28;20443;-55
2022/04/30 07:55:30;;;;;;;;;;;;;;;;;;5054447;28;20383;-55
2022/04/30 07:57:57;;;;;;;;;;;;;;;;;;5054347;28;19924;-53
2022/04/30 08:00:23;;;;;;;;;;;;;;;;;;5054802;28;19960;-57
2022/04/30 08:02:49;;;;;;;;;;;;;;;;;;5054354;28;19920;-55
2022/04/30 08:05:15;;;;;;;;;;;;;;;;;;5054392;28;20390;-55
2022/04/30 08:07:41;;;;;;;;;;;17.30;88.30;;;;;;5054263;28;20440;-55
2022/04/30 08:10:07;;;;;;;;;;;17.50;86.40;;;;;;5054569;28;19913;-54
2022/04/30 08:12:33;;;;;;;;;;;;;;;;;;5054107;28;19913;-54
2022/04/30 08:14:58;;;;;;;;;;;;;;;;;;5054311;28;19909;-54
2022/04/30 08:17:27;;;;;;;;;;;;;;;;;;5054119;28;20027;-54
2022/04/30 08:19:53;;;;;;;;;;;;;;;;;;5054042;28;19916;-54
2022/04/30 08:22:19;;;;;;;;;;;;;;;;;;5054077;28;20385;-56
2022/04/30 08:24:45;;;;;;;;;;;;;;;;;;5054219;28;19908;-56
2022/04/30 08:27:11;;;;;;;;;;;17.70;88.60;;;;;;5053989;28;20000;-53
2022/04/30 08:29:37;;;;;;;;;;;;;;;;;;5053764;28;19996;-53
2022/04/30 08:32:03;;;;;;;;;;;;;;;;;;5053809;28;19913;-52
2022/04/30 08:34:29;;;;;;;;;;;17.70;90.60;;;;;;5053770;28;19909;-54
2022/04/30 08:36:54;;;;;;;;;;;17.90;88.50;;;;;;5053774;28;19908;-54
2022/04/30 08:39:20;;;;;;;;;;;;;;;;;;5053925;28;19924;-54
2022/04/30 08:41:46;;;;;;;;;;;;;;;;;;5053580;28;19988;-56
2022/04/30 08:44:12;;;;;;;;;;;;;;;;;;5053776;28;19967;-54
2022/04/30 08:46:38;;;;;;;;;;;18.10;90.10;;;;;;5053503;28;20118;-55
2022/04/30 08:49:04;;;;;;;;;;;18.20;90.10;;;;;;5053420;28;19909;-55
2022/04/30 08:51:29;;;;;;;;;;;18.20;90.00;;;;;;5053624;28;19944;-55
2022/04/30 08:53:55;;;;;;;;;;;;;;;;;;5053520;28;19908;-55
2022/04/30 08:56:21;;;;;;;;;;;;;;;;;;5053208;28;19909;-53
2022/04/30 08:58:47;;;;;;;;;;;;;;;;;;5053584;28;19915;-54
2022/04/30 09:01:13;;;;;;;;;;;18.30;86.80;;;;;;5053182;28;19993;-54
2022/04/30 09:03:38;;;;;;;;;;;;;;;;;;5053048;28;19960;-55
2022/04/30 09:06:04;;;;;;;;;;;;;;;;;;5053459;28;19936;-55
2022/04/30 09:08:30;;;;;;;;;;;;;;;;;;5053156;28;19952;-54
2022/04/30 09:10:56;;;;;;;;;;;;;;;;;;5053231;28;19936;-53
2022/04/30 09:13:22;;;;;;;;;;;;;;;;;;5053106;28;19955;-55
2022/04/30 09:15:48;;;;;;;;;;;;;;;;;;5052984;28;19904;-54
2022/04/30 09:18:14;;;;;;;;;;;18.40;86.20;;;;;;5052928;28;19909;-54
2022/04/30 09:20:49;;;;;;;;;;;18.30;88.80;;;;;;5052829;28;20008;-52
2022/04/30 09:23:29;;;;;;;;;;;18.40;88.70;;;;;;5052901;28;19916;-55
2022/04/30 09:25:55;;;;;;;;;;;;;;;;;;5052919;28;19916;-54
2022/04/30 09:28:21;;;;;;;;;;;;;;;;;;5052980;28;19915;-54
2022/04/30 09:30:47;;;;;;;;;;;;;;;;;;5052970;28;19909;-54
2022/04/30 09:33:13;;;;;;;;;;;;;;;;;;5053038;28;19916;-55
2022/04/30 09:38:23;;;;;;;;;;;;;;;;;;5052905;28;20417;-53
2022/04/30 09:40:49;;;;;;;;;;;;;;;;;;5052690;28;19917;-51
2022/04/30 09:43:18;;;;;;;;;;;;;;;;;;5052735;28;20283;-54
2022/04/30 09:45:43;;;;;;;;;;;18.30;88.10;;;;;;5052753;28;19951;-53
2022/04/30 09:53:56;;;;;;;;;;;18.50;88.00;;;;;;5052989;28;19963;-52
2022/04/30 09:56:22;;;;;;;;;;;;;;;;;;5052533;28;19913;-54
2022/04/30 09:58:48;;;;;;;;;;;;;;;;;;5052531;28;19913;-54
2022/04/30 10:01:14;;;;;;;;;;;18.50;87.60;;;;;;5052261;28;19916;-53
2022/04/30 10:03:41;;;;;;;;;;;18.60;87.80;;;;;;5052321;28;19928;-55
2022/04/30 10:06:06;;;;;;;;;;;;;;;;;;5052567;28;19909;-55
2022/04/30 10:08:32;;;;;;;;;;;;;;;;;;5056949;28;19919;-55
2022/04/30 10:10:58;;;;;;;;;;;;;;;;;;5059024;28;19908;-55
2022/04/30 10:13:24;;;;;;;;;;;;;;;;;;5058901;28;20510;-55
2022/04/30 10:15:51;;;;;;;;;;;18.10;87.10;;;;;;5058984;28;19916;-55
2022/04/30 10:18:18;;;;;;;;;;;18.30;83.70;;;;;;5059205;28;19999;-54
2022/04/30 10:20:50;;;;;;;;;;;18.20;87.20;;;;;;5059065;28;19916;-54
2022/04/30 10:23:16;;;;;;;;;;;;;;;;;;5059137;28;19913;-55
2022/04/30 10:25:42;;;;;;;;;;;;;;;;;;5059019;28;19919;-53
2022/04/30 10:28:08;;;;;;;;;;;;;;;;;;5058977;28;19920;-55
2022/04/30 10:30:38;;;;;;;;;;;18.20;87.80;;;;;;5058952;28;19962;-55
2022/04/30 10:33:06;;;;;;;;;;;18.20;88.70;;;;;;5058970;28;19913;-55
2022/04/30 10:35:32;;;;;;;;;;;;;;;;;;5059003;28;20292;-54
2022/04/30 10:37:57;;;;;;;;;;;;;;;;;;5058782;28;19915;-55
2022/04/30 10:40:23;;;;;;;;;;;18.20;84.70;;;;;;5058580;28;19964;-56
2022/04/30 10:42:48;;;;;;;;;;;18.20;84.30;;;;;;5059033;28;19955;-56
2022/04/30 10:45:17;;;;;;;;;;;;;;;;;;5058950;28;19909;-55
2022/04/30 10:47:52;;;;;;;;;;;18.30;87.00;;;;;;5058923;28;19909;-56
2022/04/30 10:50:18;;;;;;;;;;;18.30;87.60;;;;;;5058993;28;20325;-55
2022/04/30 10:52:46;;;;;;;;;;;18.30;88.10;;;;;;5058888;28;19991;-56
2022/04/30 10:55:12;;;;;;;;;;;18.20;87.80;;;;;;5058858;28;19917;-56
2022/04/30 10:57:38;;;;;;;;;;;;;;;;;;5058786;28;19962;-55
2022/04/30 11:00:04;;;;;;;;;;;18.30;87.60;;;;;;5058802;28;19913;-56
2022/04/30 11:02:31;;;;;;;;;;;18.30;87.80;;;;;;5058608;28;20371;-56
2022/04/30 11:04:56;;;;;;;;;;;;;;;;;;5058821;28;19917;-55
2022/04/30 11:07:22;;;;;;;;;;;;;;;;;;5058677;28;19912;-55
2022/04/30 11:09:48;;;;;;;;;;;;;;;;;;5058715;28;19921;-56
2022/04/30 11:12:14;;;;;;;;;;;;;;;;;;5058570;28;19909;-57
2022/04/30 11:14:42;;;;;;;;;;;18.30;83.80;;;;;;5058883;28;19962;-56
2022/04/30 11:17:08;;;;;;;;;;;18.30;86.20;;;;;;5058587;28;19908;-55
2022/04/30 11:19:38;;;;;;;;;;;18.40;87.10;;;;;;5057062;28;20260;-57
2022/04/30 11:22:07;;;;;;;;;;;18.40;87.50;;;;;;5055508;28;19909;-58
2022/04/30 11:24:33;;;;;;;;;;;;;;;;;;5056270;28;19917;-57
2022/04/30 11:26:59;;;;;;;;;;;;;;;;;;5055323;28;20329;-58
2022/04/30 11:29:24;;;;;;;;;;;;;;;;;;5055533;28;19928;-58
2022/04/30 11:31:51;;;;;;;;;;;18.60;87.60;;;;;;5055327;28;19916;-58
2022/04/30 11:34:17;;;;;;;;;;;;;;;;;;5055232;28;20388;-58
2022/04/30 11:36:43;;;;;;;;;;;;;;;;;;5055452;28;19967;-57
2022/04/30 11:39:12;;;;;;;;;;;18.70;86.60;;;;;;5055126;28;19908;-56
2022/04/30 11:41:41;;;;;;;;;;;18.70;87.40;;;;;;5055063;28;19913;-57
2022/04/30 11:44:07;;;;;;;;;;;;;;;;;;5055321;28;19908;-58
2022/04/30 11:46:32;;;;;;;;;;;;;;;;;;5054877;28;20314;-57
2022/04/30 11:48:58;;;;;;;;;;;;;;;;;;5054863;28;19916;-57
2022/04/30 11:51:26;;;;;;;;;;;19.00;87.30;;;;;;5054086;28;19917;-57
2022/04/30 11:53:51;;;;;;;;;;;19.00;87.60;;;;;;5055150;28;20003;-57
2022/04/30 11:56:17;;;;;;;;;;;19.00;87.20;;;;;;5055194;28;19979;-58
2022/04/30 11:58:43;;;;;;;;;;;19.10;87.30;;;;;;5055033;28;19931;-58
2022/04/30 12:01:25;;;;;;;;;;;19.00;87.10;;;;;;5054853;28;19917;-57
2022/04/30 12:04:04;;;;;;;;;;;19.10;85.20;;;;;;5054551;28;19920;-57
2022/04/30 12:06:31;;;;;;;;;;;19.20;87.80;;;;;;5055010;28;19909;-57
2022/04/30 12:08:57;;;;;;;;;;;;;;;;;;5054553;28;19920;-58
2022/04/30 12:11:23;;;;;;;;;;;;;;;;;;5054860;28;19912;-57
2022/04/30 12:13:49;;;;;;;;;;;;;;;;;;5055016;28;20367;-57
2022/04/30 12:16:14;;;;;;;;;;;;;;;;;;5054626;28;19959;-57
2022/04/30 12:26:55;;;;;;;;;;;19.20;87.70;;;;;;5061088;28;19915;-58
2022/04/30 12:29:22;;;;;;;;;;;19.10;86.40;;;;;;5054321;28;19909;-56
2022/04/30 12:31:47;;;;;;;;;;;;;;;;;;5054244;28;20003;-57
2022/04/30 12:34:13;;;;;;;;;;;;;;;;;;5054298;28;19993;-57
2022/04/30 12:36:48;;;;;;;;;;;19.20;87.70;;;;;;5054188;28;19912;-57
2022/04/30 12:39:16;;;;;;;;;;;19.10;87.40;;;;;;5053934;28;20007;-55
2022/04/30 12:41:41;;;;;;;;;;;19.20;87.20;;;;;;5053930;28;19916;-57
2022/04/30 12:44:07;;;;;;;;;;;19.10;87.40;;;;;;5053928;28;20351;-55
2022/04/30 12:46:33;;;;;;;;;;;;;;;;;;5053710;28;20298;-56
2022/04/30 12:48:59;;;;;;;;;;;;;;;;;;5053645;28;19909;-56
2022/04/30 12:51:25;;;;;;;;;;;;;;;;;;5053702;28;19916;-55
2022/04/30 12:53:51;;;;;;;;;;;;;;;;;;5053549;28;19961;-54
2022/04/30 12:56:17;;;;;;;;;;;;;;;;;;5053696;28;20003;-57
2022/04/30 12:58:43;;;;;;;;;;;;;;;;;;5053555;28;20310;-56
2022/04/30 13:01:09;;;;;;;;;;;;;;;;;;5053656;28;19927;-57
2022/04/30 13:03:35;;;;;;;;;;;;;;;;;;5053213;28;20379;-56
2022/04/30 13:06:01;;;;;;;;;;;;;;;;;;5053315;28;20363;-56
2022/04/30 13:13:30;;;;;;;;;;;;;;;;;;5053267;28;20003;-57
2022/04/30 13:13:57;;;;;;;;;;;19.40;83.60;;;;;;5053322;28;19986;-56
2022/04/30 13:16:23;;;;;;;;;;;;;;;;;;5053088;28;19909;-59
2022/04/30 13:18:49;;;;;;;;;;;;;;;;;;5052947;28;20279;-59
2022/04/30 13:21:15;;;;;;;;;;;;;;;;;;5052850;28;19917;-59
2022/04/30 13:23:41;;;;;;;;;;;;;;;;;;5053107;28;19913;-59
2022/04/30 13:26:08;;;;;;;;;;;;;;;;;;5052825;28;20435;-55
2022/04/30 13:28:34;;;;;;;;;;;;;;;;;;5052938;28;19916;-57
2022/04/30 13:30:59;;;;;;;;;;;19.20;88.60;;;;;;5053190;28;19909;-57
2022/04/30 13:33:25;;;;;;;;;;;;;;;;;;5053202;28;19909;-57
2022/04/30 13:35:51;;;;;;;;;;;;;;;;;;5052850;28;19909;-57
2022/04/30 13:38:17;;;;;;;;;;;19.10;84.90;;;;;;5052914;28;19916;-57
2022/04/30 13:40:42;;;;;;;;;;;;;;;;;;5052967;28;20359;-56
2022/04/30 13:43:08;;;;;;;;;;;18.80;86.90;;;;;;5051928;28;20003;-56
2022/04/30 13:45:34;;;;;;;;;;;;;;;;;;5052673;28;20079;-57
2022/04/30 13:47:59;;;;;;;;;;;19.10;87.90;;;;;;5052482;28;19909;-55
2022/04/30 13:50:25;;;;;;;;;;;19.00;87.90;;;;;;5052564;28;19909;-57
2022/04/30 13:52:51;;;;;;;;;;;;;;;;;;5052695;28;20257;-57
2022/04/30 13:55:17;;;;;;;;;;;;;;;;;;5052708;28;19955;-57
2022/04/30 13:57:43;;;;;;;;;;;;;;;;;;5052530;28;19909;-57
2022/04/30 14:00:13;;;;;;;;;;;;;;;;;;5052722;28;19954;-57
2022/04/30 14:02:39;;;;;;;;;;;;;;;;;;5052378;28;19921;-56
2022/04/30 14:05:05;;;;;;;;;;;;;;;;;;5052587;28;20382;-55
2022/04/30 14:07:30;;;;;;;;;;;;;;;;;;5052558;28;19996;-57
2022/04/30 14:09:56;;;;;;;;;;;18.90;88.10;;;;;;5052686;28;19915;-56
2022/04/30 14:12:22;;;;;;;;;;;;;;;;;;5052440;28;19951;-57
2022/04/30 14:14:56;;;;;;;;;;;19.00;84.70;;;;;;5052739;28;20279;-56
2022/04/30 14:20:07;;;;;;;;;;;;;;;;;;5059202;28;19969;-56
2022/04/30 14:22:35;;;;;;;;;;;;;;;;;;5052767;28;19913;-57
2022/04/30 14:25:01;;;;;;;;;;;;;;;;;;5052346;28;19916;-57
2022/04/30 14:27:27;;;;;;;;;;;;;;;;;;5052314;28;19909;-56
2022/04/30 14:29:53;;;;;;;;;;;;;;;;;;5052283;28;20002;-56
2022/04/30 14:32:19;;;;;;;;;;;;;;;;;;5052324;28;19909;-57
2022/04/30 14:34:45;;;;;;;;;;;;;;;;;;5052563;28;20003;-56
2022/04/30 14:37:11;;;;;;;;;;;;;;;;;;5052517;28;19951;-58
2022/04/30 14:39:37;;;;;;;;;;;;;;;;;;5052201;28;19913;-58
2022/04/30 14:42:03;;;;;;;;;;;;;;;;;;5052267;28;19916;-58
2022/04/30 14:44:30;;;;;;;;;;;;;;;;;;5052282;28;19948;-58
2022/04/30 14:46:56;;;;;;;;;;;18.70;88.00;;;;;;5052254;28;19935;-58
2022/04/30 14:49:22;;;;;;;;;;;18.60;85.90;;;;;;5052397;28;20375;-58
2022/04/30 14:51:47;;;;;;;;;;;18.50;85.20;;;;;;5052211;28;19916;-58
2022/04/30 14:54:13;;;;;;;;;;;18.40;86.60;;;;;;5053564;28;20003;-58
2022/04/30 14:56:41;;;;;;;;;;;;;;;;;;5055993;28;19909;-56
2022/04/30 14:59:08;;;;;;;;;;;18.40;86.90;;;;;;5055849;28;19909;-56
2022/04/30 15:01:34;;;;;;;;;;;;;;;;;;5055871;28;19917;-57
2022/04/30 15:04:00;;;;;;;;;;;;;;;;;;5055825;28;20015;-56
2022/04/30 15:06:26;;;;;;;;;;;18.50;87.00;;;;;;5055671;28;19908;-56
2022/04/30 15:08:51;;;;;;;;;;;18.40;87.20;;;;;;5055748;28;20442;-55
2022/04/30 15:11:17;;;;;;;;;;;18.40;86.50;;;;;;5055607;28;19915;-55
2022/04/30 15:13:43;;;;;;;;;;;;;;;;;;5055738;28;19909;-56
2022/04/30 15:16:08;;;;;;;;;;;18.50;87.60;;;;;;5055467;28;19909;-55
2022/04/30 15:18:34;;;;;;;;;;;18.40;87.70;;;;;;5055716;28;19913;-55
2022/04/30 15:20:59;;;;;;;;;;;;;;;;;;5055456;28;20382;-56
2022/04/30 15:23:25;;;;;;;;;;;18.40;88.20;;;;;;5055319;28;20340;-55
2022/04/30 15:25:52;;;;;;;;;;;;;;;;;;5055431;28;20003;-56
2022/04/30 15:28:18;;;;;;;;;;;18.50;88.50;;;;;;5055562;28;19909;-56
2022/04/30 15:30:44;;;;;;;;;;;;;;;;;;5055325;28;19966;-56
2022/04/30 15:33:10;;;;;;;;;;;;;;;;;;5055205;28;19969;-56
2022/04/30 15:35:37;;;;;;;;;;;18.10;88.30;;;;;;5055132;28;19909;-56
2022/04/30 15:38:03;;;;;;;;;;;18.40;88.00;;;;;;5055157;28;19909;-56
2022/04/30 15:40:29;;;;;;;;;;;18.30;88.60;;;;;;5055312;28;19917;-56
2022/04/30 15:42:55;;;;;;;;;;;;;;;;;;5055078;28;19916;-56
2022/04/30 15:45:21;;;;;;;;;;;;;;;;;;5054969;28;20394;-55
2022/04/30 15:53:15;;;;;;;;;;;18.40;88.80;;;;;;5061531;28;19916;-56
2022/04/30 15:55:41;;;;;;;;;;;18.30;84.60;;;;;;5055182;28;19909;-55
2022/04/30 15:58:06;;;;;;;;;;;18.30;88.60;;;;;;5054768;28;19954;-55
2022/04/30 16:00:32;;;;;;;;;;;18.40;88.20;;;;;;5054609;28;19921;-57
2022/04/30 16:02:58;;;;;;;;;;;;;;;;;;5054496;28;19928;-57
2022/04/30 16:05:23;;;;;;;;;;;18.00;88.30;;;;;;5053674;28;19909;-57
2022/04/30 16:07:49;;;;;;;;;;;18.30;88.80;;;;;;5054652;28;20411;-55
2022/04/30 16:10:15;;;;;;;;;;;;;;;;;;5054920;28;19916;-56
2022/04/30 16:12:42;;;;;;;;;;;;;;;;;;5054767;28;19920;-49
2022/04/30 16:15:10;;;;;;;;;;;18.40;88.20;;;;;;5054533;28;19932;-49
2022/04/30 16:17:36;;;;;;;;;;;18.40;88.60;;;;;;5054355;28;20011;-49
2022/04/30 16:20:03;;;;;;;;;;;18.40;86.80;;;;;;5054338;28;20439;-49
2022/04/30 16:22:29;;;;;;;;;;;;;;;;;;5054378;28;19991;-49
2022/04/30 16:24:54;;;;;;;;;;;;;;;;;;5054384;28;19967;-49
2022/04/30 16:27:20;;;;;;;;;;;;;;;;;;5054312;28;19909;-49
2022/04/30 16:29:46;;;;;;;;;;;18.50;88.40;;;;;;5054256;28;19955;-48